Time;durP1;ratioP1;P1;durP2;ratioP2;P2;SDS_P1;SDS_P2;PMS_P1;PMS_P2;Temp;Humidity;BMP_temperature;BMP_pressure;BME280_temperature;BME280_humidity;BME280_pressure;Samples;Min_cycle;Max_cycle;Signal;HPM_P1;HPM_P2
2022/09/06 00:00:09;;;;;;;12.48;9.43;;;20.00;99.90;;;;;;5135959;27;20196;-70
2022/09/06 00:02:36;;;;;;;12.85;9.27;;;20.00;99.90;;;;;;5116981;27;20205;-70
2022/09/06 00:05:04;;;;;;;13.10;9.25;;;20.00;99.90;;;;;;5127043;27;20196;-71
2022/09/06 00:07:31;;;;;;;10.90;9.55;;;19.90;99.90;;;;;;5128915;27;20200;-71
2022/09/06 00:09:58;;;;;;;10.55;9.55;;;19.90;99.90;;;;;;5121367;27;20200;-70
2022/09/06 00:12:25;;;;;;;14.63;9.73;;;19.90;99.90;;;;;;5134223;27;20204;-70
2022/09/06 00:14:54;;;;;;;12.00;9.23;;;19.90;99.90;;;;;;5135644;27;20200;-70
2022/09/06 00:17:21;;;;;;;11.68;9.40;;;19.90;99.90;;;;;;5114364;27;20549;-70
2022/09/06 00:19:48;;;;;;;11.68;9.32;;;19.90;99.90;;;;;;5109152;27;20224;-70
2022/09/06 00:22:15;;;;;;;11.77;9.50;;;19.90;99.90;;;;;;5104196;27;20198;-70
2022/09/06 00:24:41;;;;;;;12.23;9.27;;;19.80;99.90;;;;;;5104578;28;20197;-70
2022/09/06 00:27:09;;;;;;;11.57;9.30;;;19.80;99.90;;;;;;5114335;27;20197;-71
2022/09/06 00:29:36;;;;;;;10.10;9.02;;;19.80;99.90;;;;;;5116139;27;20710;-70
2022/09/06 00:32:04;;;;;;;12.02;9.25;;;19.90;99.90;;;;;;5110602;28;20648;-70
2022/09/06 00:34:31;;;;;;;10.63;9.25;;;19.80;99.90;;;;;;5106293;27;20201;-70
2022/09/06 00:36:58;;;;;;;11.00;9.25;;;19.80;99.90;;;;;;5134211;27;20211;-71
2022/09/06 00:39:24;;;;;;;9.77;8.45;;;19.80;99.90;;;;;;5106351;27;20683;-70
2022/09/06 00:41:51;;;;;;;9.93;8.93;;;19.80;99.90;;;;;;5116315;27;20205;-70
2022/09/06 00:44:18;;;;;;;11.40;9.30;;;19.80;99.90;;;;;;5129995;27;20203;-70
2022/09/06 00:46:48;;;;;;;10.43;9.25;;;19.70;99.90;;;;;;5108509;27;20205;-70
2022/09/06 00:49:23;;;;;;;13.18;9.45;;;19.70;99.90;;;;;;5135599;27;20563;-70
2022/09/06 00:51:51;;;;;;;12.35;9.13;;;19.70;99.90;;;;;;5132921;27;20286;-70
2022/09/06 00:54:18;;;;;;;9.82;8.75;;;19.70;99.90;;;;;;5112573;27;20948;-70
2022/09/06 00:56:46;;;;;;;9.68;8.60;;;19.70;99.90;;;;;;5096692;27;20198;-70
2022/09/06 00:59:14;;;;;;;10.23;8.18;;;19.70;99.90;;;;;;5134721;27;20220;-70
2022/09/06 01:01:40;;;;;;;9.65;8.65;;;19.70;99.90;;;;;;5133474;27;20196;-70
2022/09/06 01:04:08;;;;;;;10.05;8.40;;;19.60;99.90;;;;;;5114658;27;20671;-71
2022/09/06 01:06:45;;;;;;;11.05;9.52;;;19.60;99.90;;;;;;5120940;27;20232;-71
2022/09/06 01:09:26;;;;;;;11.23;9.27;;;19.50;99.90;;;;;;5115899;27;20536;-71
2022/09/06 01:12:04;;;;;;;11.32;8.75;;;19.60;99.90;;;;;;5115701;27;20193;-70
2022/09/06 01:14:42;;;;;;;10.70;9.00;;;19.50;99.90;;;;;;5116154;27;20212;-70
2022/09/06 01:17:20;;;;;;;10.27;9.02;;;19.50;99.90;;;;;;5120584;27;20196;-70
2022/09/06 01:20:26;;;;;;;14.30;8.95;;;19.40;99.90;;;;;;5134155;27;20219;-70
2022/09/06 01:23:27;;;;;;;10.88;8.93;;;19.40;99.90;;;;;;5105209;27;20196;-70
2022/09/06 01:26:03;;;;;;;12.43;9.50;;;19.50;99.90;;;;;;5131901;27;20244;-70
2022/09/06 01:28:35;;;;;;;10.45;8.68;;;19.40;99.90;;;;;;5111592;27;20558;-70
2022/09/06 01:31:17;;;;;;;10.40;9.32;;;19.30;99.90;;;;;;5093575;28;20205;-70
2022/09/06 01:33:53;;;;;;;11.15;9.27;;;19.30;99.90;;;;;;5117816;27;20200;-70
2022/09/06 01:36:24;;;;;;;12.55;8.95;;;19.20;99.90;;;;;;5129841;27;20218;-70
2022/09/06 01:38:51;;;;;;;10.43;9.05;;;19.20;99.90;;;;;;5132511;27;20212;-70
2022/09/06 01:41:18;;;;;;;12.77;10.05;;;19.20;99.90;;;;;;5113005;27;20198;-70
2022/09/06 01:43:50;;;;;;;13.25;9.65;;;19.10;99.90;;;;;;5108997;27;20193;-70
2022/09/06 01:46:25;;;;;;;10.20;8.98;;;19.00;99.90;;;;;;5134004;27;20637;-71
2022/09/06 01:49:07;;;;;;;12.45;9.98;;;18.90;99.90;;;;;;5103944;27;20188;-71
2022/09/06 01:51:44;;;;;;;11.80;9.82;;;18.90;99.90;;;;;;5094215;27;20223;-71
2022/09/06 01:54:27;;;;;;;13.00;9.80;;;18.80;99.90;;;;;;5119323;27;20661;-71
2022/09/06 01:57:03;;;;;;;13.40;10.00;;;18.80;99.90;;;;;;5110540;27;20196;-71
2022/09/06 01:59:49;;;;;;;13.07;9.98;;;18.70;99.90;;;;;;5133752;27;20244;-71
2022/09/06 02:02:24;;;;;;;12.77;9.65;;;18.70;99.90;;;;;;5103147;27;20582;-71
2022/09/06 02:04:58;;;;;;;10.80;9.18;;;18.60;99.90;;;;;;5113586;28;20628;-71
2022/09/06 02:07:27;;;;;;;12.95;9.80;;;18.60;99.90;;;;;;5121639;27;20283;-71
2022/09/06 02:09:58;;;;;;;11.20;9.20;;;18.60;99.90;;;;;;5132280;27;20772;-71
2022/09/06 02:12:26;;;;;;;10.35;9.25;;;18.60;99.90;;;;;;5133158;27;20674;-71
2022/09/06 02:14:58;;;;;;;13.68;10.07;;;18.60;99.90;;;;;;5108524;27;20197;-71
2022/09/06 02:17:29;;;;;;;12.60;9.57;;;18.50;99.90;;;;;;5112830;28;20662;-71
2022/09/06 02:20:01;;;;;;;10.95;9.30;;;18.60;99.90;;;;;;5126546;27;20213;-71
2022/09/06 02:22:32;;;;;;;10.60;9.10;;;18.50;99.90;;;;;;5098405;28;20202;-71
2022/09/06 02:25:00;;;;;;;12.13;9.82;;;18.60;99.90;;;;;;5132987;27;20197;-71
2022/09/06 02:27:27;;;;;;;11.02;9.02;;;18.50;99.90;;;;;;5114207;27;20197;-71
2022/09/06 02:29:55;;;;;;;10.30;8.45;;;18.50;99.90;;;;;;5110585;27;20199;-71
2022/09/06 02:32:25;;;;;;;10.70;8.75;;;18.50;99.90;;;;;;5115080;27;20204;-71
2022/09/06 02:34:54;;;;;;;10.85;9.00;;;18.50;99.90;;;;;;5115735;27;20369;-71
2022/09/06 02:37:24;;;;;;;9.65;8.65;;;18.60;99.90;;;;;;5096867;27;20212;-71
2022/09/06 02:39:53;;;;;;;10.38;8.38;;;18.50;99.90;;;;;;5114664;27;20311;-71
2022/09/06 02:42:20;;;;;;;11.10;9.85;;;18.50;99.90;;;;;;5118005;27;20210;-71
2022/09/06 02:44:48;;;;;;;10.73;9.45;;;18.50;99.90;;;;;;5105930;28;20196;-71
2022/09/06 02:47:16;;;;;;;10.30;8.65;;;18.50;99.90;;;;;;5117408;27;20284;-71
2022/09/06 02:49:43;;;;;;;11.32;9.00;;;18.40;99.90;;;;;;5113111;27;20280;-71
2022/09/06 02:52:09;;;;;;;9.82;8.55;;;18.40;99.90;;;;;;5105761;27;20200;-71
2022/09/06 02:54:36;;;;;;;10.88;9.20;;;18.40;99.90;;;;;;5122845;27;20579;-70
2022/09/06 02:57:03;;;;;;;10.10;8.48;;;18.40;99.90;;;;;;5132916;27;20203;-70
2022/09/06 02:59:31;;;;;;;10.60;8.52;;;18.30;99.90;;;;;;5121202;27;20224;-70
2022/09/06 03:01:58;;;;;;;11.35;8.73;;;18.40;99.90;;;;;;5104784;28;20605;-70
2022/09/06 03:04:26;;;;;;;9.38;8.32;;;18.40;99.90;;;;;;5128215;28;20200;-70
2022/09/06 03:06:53;;;;;;;10.02;8.20;;;18.40;99.90;;;;;;5110163;28;20673;-71
2022/09/06 03:09:20;;;;;;;11.02;9.13;;;18.40;99.90;;;;;;5111793;28;20230;-71
2022/09/06 03:11:47;;;;;;;10.98;8.70;;;18.30;99.90;;;;;;5124560;28;20196;-71
2022/09/06 03:14:15;;;;;;;10.35;8.75;;;18.30;99.90;;;;;;5110661;28;20204;-71
2022/09/06 03:16:41;;;;;;;9.30;8.05;;;18.30;99.90;;;;;;5128658;28;20204;-71
2022/09/06 03:19:08;;;;;;;10.73;8.38;;;18.20;99.90;;;;;;5133104;28;20220;-71
2022/09/06 03:21:36;;;;;;;9.63;7.97;;;18.20;99.90;;;;;;5108150;28;20212;-71
2022/09/06 03:24:03;;;;;;;10.20;8.38;;;18.20;99.90;;;;;;5092098;28;20202;-71
2022/09/06 03:26:30;;;;;;;9.65;8.35;;;18.20;99.90;;;;;;5091561;28;20210;-71
2022/09/06 03:28:57;;;;;;;8.82;7.85;;;18.20;99.90;;;;;;5091136;28;20216;-71
2022/09/06 03:31:24;;;;;;;10.07;8.10;;;18.10;99.90;;;;;;5091284;28;20663;-70
2022/09/06 03:33:50;;;;;;;10.27;7.63;;;18.00;99.90;;;;;;5091071;28;20220;-70
2022/09/06 03:36:17;;;;;;;13.15;8.68;;;18.00;99.90;;;;;;5091479;28;20574;-71
2022/09/06 03:38:45;;;;;;;9.60;8.07;;;18.00;99.90;;;;;;5091861;28;20750;-70
2022/09/06 03:41:12;;;;;;;9.68;8.20;;;17.80;99.90;;;;;;5091159;28;20209;-70
2022/09/06 03:43:39;;;;;;;10.60;8.18;;;17.70;99.90;;;;;;5091973;28;20205;-70
2022/09/06 03:46:06;;;;;;;10.77;8.00;;;17.70;99.90;;;;;;5091545;28;20229;-70
2022/09/06 03:48:33;;;;;;;10.27;7.75;;;17.60;99.90;;;;;;5094705;28;20786;-70
2022/09/06 03:51:00;;;;;;;9.95;7.93;;;17.70;99.90;;;;;;5122167;28;20212;-70
2022/09/06 03:53:28;;;;;;;11.05;8.30;;;17.70;99.90;;;;;;5113879;28;20228;-70
2022/09/06 03:55:57;;;;;;;12.43;7.75;;;17.70;99.90;;;;;;5112385;28;20204;-70
2022/09/06 03:58:28;;;;;;;9.63;7.97;;;17.70;99.90;;;;;;5112011;28;20201;-70
2022/09/06 04:01:07;;;;;;;13.48;7.72;;;17.60;99.90;;;;;;5097654;28;20222;-71
2022/09/06 04:03:35;;;;;;;11.52;7.80;;;17.50;99.90;;;;;;5107245;28;20209;-71
2022/09/06 04:06:02;;;;;;;8.90;8.00;;;17.50;99.90;;;;;;5115539;28;20207;-71
2022/09/06 04:08:29;;;;;;;8.52;7.53;;;17.50;99.90;;;;;;5112442;28;20662;-71
2022/09/06 04:10:58;;;;;;;11.45;7.53;;;17.50;99.90;;;;;;5094981;28;20198;-71
2022/09/06 04:13:26;;;;;;;11.73;7.60;;;17.50;99.90;;;;;;5095134;28;20208;-71
2022/09/06 04:15:53;;;;;;;9.38;7.47;;;17.50;99.90;;;;;;5095221;28;20201;-71
2022/09/06 04:18:21;;;;;;;9.20;7.95;;;17.50;99.90;;;;;;5094551;28;20190;-71
2022/09/06 04:20:49;;;;;;;9.55;7.70;;;17.40;99.90;;;;;;5095320;28;20228;-71
2022/09/06 04:23:16;;;;;;;10.30;8.07;;;17.40;99.90;;;;;;5099555;27;20201;-71
2022/09/06 04:25:47;;;;;;;10.05;7.88;;;17.40;99.90;;;;;;5105621;28;20209;-71
2022/09/06 04:28:17;;;;;;;12.18;8.05;;;17.30;99.90;;;;;;5097456;28;20194;-71
2022/09/06 04:30:44;;;;;;;11.25;7.85;;;17.40;99.90;;;;;;5109174;28;20247;-71
2022/09/06 04:33:10;;;;;;;10.73;7.93;;;17.30;99.90;;;;;;5114737;28;20205;-71
2022/09/06 04:35:37;;;;;;;10.32;7.90;;;17.30;99.90;;;;;;5114066;28;20209;-71
2022/09/06 04:38:05;;;;;;;9.30;7.68;;;17.30;99.90;;;;;;5118070;27;20291;-71
2022/09/06 04:40:31;;;;;;;10.98;7.57;;;17.30;99.90;;;;;;5094484;28;20233;-71
2022/09/06 04:42:58;;;;;;;11.25;7.53;;;17.30;99.90;;;;;;5093375;28;20208;-71
2022/09/06 04:45:26;;;;;;;9.48;7.35;;;17.40;99.90;;;;;;5097591;28;20201;-71
2022/09/06 04:47:53;;;;;;;10.30;7.68;;;17.30;99.90;;;;;;5114507;28;20197;-68
2022/09/06 04:50:20;;;;;;;10.57;7.50;;;17.30;99.90;;;;;;5113719;28;20230;-68
2022/09/06 04:52:47;;;;;;;11.00;7.80;;;17.30;99.90;;;;;;5113162;28;20255;-69
2022/09/06 04:55:15;;;;;;;12.80;7.43;;;17.30;99.90;;;;;;5114328;28;20572;-68
2022/09/06 04:57:41;;;;;;;12.48;7.45;;;17.30;99.90;;;;;;5112958;28;20245;-71
2022/09/06 05:00:09;;;;;;;9.93;7.22;;;17.30;99.90;;;;;;5103971;28;20225;-69
2022/09/06 05:02:38;;;;;;;8.88;7.55;;;17.20;99.90;;;;;;5110490;28;20530;-68
2022/09/06 05:05:05;;;;;;;9.43;7.50;;;17.20;99.90;;;;;;5125352;27;20707;-71
2022/09/06 05:07:32;;;;;;;9.48;7.25;;;17.20;99.90;;;;;;5113812;28;20189;-68
2022/09/06 05:09:59;;;;;;;9.57;7.93;;;17.20;99.90;;;;;;5113823;28;20646;-70
2022/09/06 05:12:27;;;;;;;10.43;7.78;;;17.20;99.90;;;;;;5113148;28;20197;-71
2022/09/06 05:14:54;;;;;;;10.68;7.68;;;17.20;99.90;;;;;;5099438;28;20300;-70
2022/09/06 05:17:22;;;;;;;9.75;8.35;;;17.20;99.90;;;;;;5093716;28;20194;-68
2022/09/06 05:19:50;;;;;;;8.75;7.35;;;17.20;99.90;;;;;;5092433;28;20229;-69
2022/09/06 05:22:17;;;;;;;14.93;8.18;;;17.20;99.90;;;;;;5092445;28;20205;-70
2022/09/06 05:24:45;;;;;;;11.48;7.38;;;17.20;99.90;;;;;;5093216;28;20206;-71
2022/09/06 05:27:13;;;;;;;11.15;7.97;;;17.20;99.90;;;;;;5093179;28;20212;-70
2022/09/06 05:29:40;;;;;;;10.15;7.05;;;17.30;99.90;;;;;;5093467;28;20232;-70
2022/09/06 05:32:07;;;;;;;11.27;7.90;;;17.20;99.90;;;;;;5092601;28;20201;-71
2022/09/06 05:34:34;;;;;;;11.77;7.50;;;17.20;99.90;;;;;;5092191;28;20243;-68
2022/09/06 05:37:02;;;;;;;9.68;7.43;;;17.20;99.90;;;;;;5110943;27;20286;-70
2022/09/06 05:39:30;;;;;;;10.43;7.82;;;17.10;99.90;;;;;;5114168;27;20234;-70
2022/09/06 05:41:57;;;;;;;9.25;7.18;;;17.20;99.90;;;;;;5113004;28;20227;-70
2022/09/06 05:44:25;;;;;;;12.00;7.65;;;17.10;99.90;;;;;;5113600;28;20207;-69
2022/09/06 05:46:52;;;;;;;8.35;7.38;;;17.00;99.90;;;;;;5111630;28;20197;-71
2022/09/06 05:49:19;;;;;;;12.80;8.30;;;17.00;99.90;;;;;;5114066;28;20258;-70
2022/09/06 05:51:50;;;;;;;12.38;8.35;;;16.90;99.90;;;;;;5097633;28;20720;-69
2022/09/06 05:54:18;;;;;;;9.27;8.05;;;16.80;99.90;;;;;;5092720;28;20533;-69
2022/09/06 05:56:45;;;;;;;9.30;7.82;;;16.70;99.90;;;;;;5093291;28;20212;-69
2022/09/06 05:59:12;;;;;;;8.60;7.80;;;16.60;99.90;;;;;;5093554;28;20224;-70
2022/09/06 06:01:48;;;;;;;8.57;7.68;;;16.70;99.90;;;;;;5092780;28;20231;-70
2022/09/06 06:04:17;;;;;;;9.85;7.38;;;16.70;99.90;;;;;;5093276;28;20246;-70
2022/09/06 06:06:44;;;;;;;13.13;7.78;;;16.70;99.90;;;;;;5109133;28;20572;-70
2022/09/06 06:09:11;;;;;;;9.23;7.07;;;16.70;99.90;;;;;;5113505;28;20208;-70
2022/09/06 06:11:40;;;;;;;11.38;8.32;;;16.70;99.90;;;;;;5113381;28;20563;-70
2022/09/06 06:14:08;;;;;;;10.35;7.90;;;16.80;99.90;;;;;;5112481;28;20205;-70
2022/09/06 06:16:34;;;;;;;11.90;7.85;;;16.80;99.90;;;;;;5113492;28;20205;-69
2022/09/06 06:19:01;;;;;;;19.17;8.50;;;16.90;99.90;;;;;;5113306;28;20702;-69
2022/09/06 06:21:30;;;;;;;12.02;8.20;;;16.90;99.90;;;;;;5105527;27;20214;-69
2022/09/06 06:23:58;;;;;;;8.82;7.35;;;16.90;99.90;;;;;;5125225;27;20235;-70
2022/09/06 06:26:27;;;;;;;10.80;8.23;;;17.00;99.90;;;;;;5117498;27;20205;-69
2022/09/06 06:28:56;;;;;;;10.10;7.90;;;17.10;99.90;;;;;;5113039;28;20193;-69
2022/09/06 06:31:23;;;;;;;9.07;7.32;;;17.10;99.90;;;;;;5106405;28;20225;-69
2022/09/06 06:33:50;;;;;;;9.15;7.03;;;17.10;99.90;;;;;;5092798;28;20206;-70
2022/09/06 06:36:23;;;;;;;8.15;7.10;;;17.20;99.90;;;;;;5092408;28;20217;-70
2022/09/06 06:38:52;;;;;;;10.45;7.43;;;17.20;99.90;;;;;;5091913;28;20209;-69
2022/09/06 06:41:22;;;;;;;10.80;7.28;;;17.10;99.90;;;;;;5091296;28;20624;-69
2022/09/06 06:43:51;;;;;;;8.48;7.30;;;17.20;99.90;;;;;;5092806;28;20209;-69
2022/09/06 06:46:20;;;;;;;10.73;8.07;;;17.20;99.90;;;;;;5092465;28;20198;-70
2022/09/06 06:48:47;;;;;;;8.80;7.90;;;17.20;99.90;;;;;;5092489;28;20201;-69
2022/09/06 06:51:16;;;;;;;9.52;7.38;;;17.10;99.90;;;;;;5092206;28;20212;-70
2022/09/06 06:53:43;;;;;;;11.93;7.40;;;17.10;99.90;;;;;;5091428;28;20201;-70
2022/09/06 06:56:16;;;;;;;10.85;7.53;;;17.00;99.90;;;;;;5092606;28;20212;-70
2022/09/06 06:58:43;;;;;;;16.27;8.10;;;17.10;99.90;;;;;;5091849;28;20297;-69
2022/09/06 07:01:11;;;;;;;14.27;8.02;;;17.00;99.90;;;;;;5091540;28;20217;-70
2022/09/06 07:03:39;;;;;;;10.77;7.47;;;17.10;99.90;;;;;;5121133;27;20201;-70
2022/09/06 07:06:07;;;;;;;10.45;7.82;;;17.10;99.90;;;;;;5115655;28;20203;-70
2022/09/06 07:08:34;;;;;;;11.05;7.63;;;17.10;99.90;;;;;;5110688;28;20211;-70
2022/09/06 07:11:02;;;;;;;11.23;7.85;;;17.10;99.90;;;;;;5091930;28;20211;-70
2022/09/06 07:13:28;;;;;;;11.70;7.65;;;17.10;99.90;;;;;;5091962;28;20560;-70
2022/09/06 07:16:07;;;;;;;10.30;7.65;;;17.20;99.90;;;;;;5092452;28;20204;-70
2022/09/06 07:18:34;;;;;;;14.20;7.90;;;17.20;99.90;;;;;;5091370;28;20219;-69
2022/09/06 07:21:02;;;;;;;8.95;7.72;;;17.20;99.90;;;;;;5091924;28;20698;-69
2022/09/06 07:23:29;;;;;;;9.90;7.40;;;17.20;99.90;;;;;;5092171;28;20208;-69
2022/09/06 07:25:55;;;;;;;11.00;7.80;;;17.20;99.90;;;;;;5092329;28;20201;-70
2022/09/06 07:28:23;;;;;;;15.55;8.80;;;17.20;99.90;;;;;;5092114;28;20210;-69
2022/09/06 07:30:54;;;;;;;13.50;7.50;;;17.30;99.90;;;;;;5092147;28;20258;-69
2022/09/06 07:33:21;;;;;;;9.68;7.90;;;17.30;99.90;;;;;;5092087;28;20201;-70
2022/09/06 07:35:56;;;;;;;10.98;8.05;;;17.40;99.90;;;;;;5094652;28;20542;-70
2022/09/06 07:38:24;;;;;;;15.43;7.70;;;17.30;99.90;;;;;;5096056;28;20250;-70
2022/09/06 07:40:56;;;;;;;11.57;7.82;;;17.40;99.90;;;;;;5095701;28;20229;-70
2022/09/06 07:43:23;;;;;;;9.35;7.70;;;17.40;99.90;;;;;;5096194;28;20673;-70
2022/09/06 07:45:57;;;;;;;14.32;7.82;;;17.40;99.90;;;;;;5096132;28;20208;-69
2022/09/06 07:48:24;;;;;;;15.30;8.02;;;17.50;99.90;;;;;;5095960;28;20212;-69
2022/09/06 07:50:51;;;;;;;10.05;7.40;;;17.50;99.90;;;;;;5095750;28;20205;-70
2022/09/06 07:53:17;;;;;;;12.00;7.80;;;17.50;99.90;;;;;;5096091;28;20229;-70
2022/09/06 07:55:46;;;;;;;10.18;7.88;;;17.60;99.90;;;;;;5095865;28;20212;-70
2022/09/06 07:58:12;;;;;;;11.40;7.30;;;17.60;99.90;;;;;;5096073;28;20683;-70
2022/09/06 08:00:39;;;;;;;10.95;7.43;;;17.60;99.90;;;;;;5095461;28;20232;-70
2022/09/06 08:03:06;;;;;;;14.65;8.60;;;17.60;99.90;;;;;;5095662;28;20205;-70
2022/09/06 08:05:33;;;;;;;11.43;7.80;;;17.60;99.90;;;;;;5095748;28;20209;-70
2022/09/06 08:08:00;;;;;;;13.32;8.57;;;17.70;99.90;;;;;;5095817;28;20204;-70
2022/09/06 08:10:27;;;;;;;12.00;8.75;;;17.80;99.90;;;;;;5095404;28;20202;-69
2022/09/06 08:12:55;;;;;;;11.25;8.68;;;17.80;99.90;;;;;;5095592;28;20224;-70
2022/09/06 08:15:23;;;;;;;12.27;8.32;;;17.80;99.90;;;;;;5095564;28;20293;-70
2022/09/06 08:17:50;;;;;;;12.30;7.72;;;17.80;99.90;;;;;;5095264;28;20209;-70
2022/09/06 08:20:17;;;;;;;12.82;8.18;;;17.90;99.90;;;;;;5095369;28;20689;-70
2022/09/06 08:22:44;;;;;;;11.10;7.85;;;17.90;99.90;;;;;;5095185;28;20205;-70
2022/09/06 08:25:11;;;;;;;11.50;8.07;;;18.30;99.90;;;;;;5095219;28;20206;-70
2022/09/06 08:27:38;;;;;;;13.57;8.57;;;18.50;99.90;;;;;;5095199;28;20208;-70
2022/09/06 08:30:07;;;;;;;11.95;7.40;;;18.40;99.90;;;;;;5095564;28;20206;-70
2022/09/06 08:32:35;;;;;;;16.77;8.10;;;18.30;99.90;;;;;;5095001;28;20363;-70
2022/09/06 08:35:02;;;;;;;9.40;7.50;;;18.40;99.90;;;;;;5095395;28;20213;-70
2022/09/06 08:37:29;;;;;;;14.13;7.65;;;18.50;99.90;;;;;;5094916;28;20206;-70
2022/09/06 08:39:55;;;;;;;11.98;8.18;;;18.80;99.90;;;;;;5094979;28;20223;-69
2022/09/06 08:42:22;;;;;;;9.73;7.93;;;18.90;99.90;;;;;;5094865;28;20268;-70
2022/09/06 08:44:52;;;;;;;10.20;7.72;;;18.60;99.90;;;;;;5094862;28;20202;-70
2022/09/06 08:47:21;;;;;;;9.73;8.15;;;18.90;99.90;;;;;;5094009;28;20201;-70
2022/09/06 08:49:53;;;;;;;11.85;7.60;;;18.50;99.90;;;;;;5095167;28;20216;-70
2022/09/06 08:52:40;;;;;;;10.88;8.20;;;19.10;99.90;;;;;;5105877;27;20651;-70
2022/09/06 08:55:23;;;;;;;10.63;6.93;;;19.00;99.90;;;;;;5109930;27;20196;-70
2022/09/06 08:58:05;;;;;;;12.30;7.32;;;19.10;99.90;;;;;;5096695;27;20202;-70
2022/09/06 09:00:35;;;;;;;8.27;6.90;;;19.10;99.90;;;;;;5102741;28;20217;-70
2022/09/06 09:03:09;;;;;;;10.88;6.90;;;18.90;99.90;;;;;;5116562;27;20204;-70
2022/09/06 09:05:38;;;;;;;9.30;7.20;;;19.30;99.90;;;;;;5130161;27;20199;-70
2022/09/06 09:08:17;;;;;;;11.02;7.93;;;19.20;99.90;;;;;;5108072;28;20208;-70
2022/09/06 09:10:47;;;;;;;11.40;7.50;;;19.20;99.90;;;;;;5113927;28;20670;-70
2022/09/06 09:13:22;;;;;;;7.78;6.88;;;19.30;99.90;;;;;;5107333;28;20220;-70
2022/09/06 09:15:48;;;;;;;9.50;7.38;;;20.00;99.90;;;;;;5093973;28;20224;-70
2022/09/06 09:18:23;;;;;;;7.88;6.97;;;19.80;99.90;;;;;;5094111;28;20208;-70
2022/09/06 09:20:50;;;;;;;10.85;7.20;;;19.90;99.90;;;;;;5094066;28;20205;-70
2022/09/06 09:23:17;;;;;;;11.27;7.30;;;20.00;99.90;;;;;;5094189;28;20206;-70
2022/09/06 09:25:45;;;;;;;9.43;7.28;;;19.90;99.90;;;;;;5108753;27;20205;-70
2022/09/06 09:28:17;;;;;;;9.88;6.32;;;20.00;99.90;;;;;;5096680;28;20213;-70
2022/09/06 09:30:50;;;;;;;11.95;6.93;;;20.30;99.90;;;;;;5093685;28;20636;-70
2022/09/06 09:33:30;;;;;;;9.70;6.63;;;20.40;99.90;;;;;;5093204;28;20206;-70
2022/09/06 09:35:59;;;;;;;10.25;7.28;;;20.40;99.90;;;;;;5102911;27;20192;-70
2022/09/06 09:38:27;;;;;;;8.32;7.40;;;20.20;99.90;;;;;;5125930;27;20192;-70
2022/09/06 09:40:56;;;;;;;10.45;6.93;;;20.30;99.90;;;;;;5133738;27;20609;-70
2022/09/06 09:43:24;;;;;;;9.80;7.40;;;20.50;99.90;;;;;;5135003;27;20193;-70
2022/09/06 09:46:13;;;;;;;7.80;6.20;;;21.10;99.90;;;;;;5123247;27;20197;-70
2022/09/06 09:48:47;;;;;;;11.80;7.25;;;21.30;99.90;;;;;;5113718;28;20201;-70
2022/09/06 09:51:20;;;;;;;12.35;8.07;;;21.70;93.80;;;;;;5101975;28;20201;-70
2022/09/06 09:53:52;;;;;;;9.50;6.82;;;22.00;82.40;;;;;;5092465;28;20209;-70
2022/09/06 09:56:37;;;;;;;10.93;6.47;;;22.00;74.60;;;;;;5092744;28;20554;-70
2022/09/06 09:59:15;;;;;;;18.65;7.10;;;22.40;64.60;;;;;;5092273;28;20201;-70
2022/09/06 10:01:42;;;;;;;9.77;6.75;;;22.70;72.30;;;;;;5093244;28;20217;-70
2022/09/06 10:04:17;;;;;;;9.00;6.60;;;22.40;59.90;;;;;;5093214;28;20205;-70
2022/09/06 10:06:44;;;;;;;7.93;6.90;;;21.80;62.10;;;;;;5093026;28;20185;-70
2022/09/06 10:09:21;;;;;;;11.88;7.18;;;21.90;68.60;;;;;;5092096;28;20201;-70
2022/09/06 10:11:53;;;;;;;8.60;7.07;;;21.90;72.00;;;;;;5093134;28;20586;-70
2022/09/06 10:14:30;;;;;;;8.80;7.05;;;21.60;82.40;;;;;;5092967;28;20194;-71
2022/09/06 10:16:59;;;;;;;10.98;7.57;;;21.70;80.10;;;;;;5093084;28;20201;-71
2022/09/06 10:19:39;;;;;;;14.35;7.05;;;21.80;69.20;;;;;;5093058;28;20209;-71
2022/09/06 10:22:27;;;;;;;11.80;7.20;;;21.90;76.30;;;;;;5092011;28;20311;-71
2022/09/06 10:25:12;;;;;;;13.60;7.05;;;21.80;78.20;;;;;;5113300;27;20232;-71
2022/09/06 10:27:49;;;;;;;10.00;7.65;;;21.60;74.60;;;;;;5112000;28;20204;-71
2022/09/06 10:30:16;;;;;;;7.43;6.55;;;21.40;75.70;;;;;;5110308;28;20522;-71
2022/09/06 10:32:51;;;;;;;8.10;6.82;;;21.50;82.80;;;;;;5111145;28;20662;-71
2022/09/06 10:35:24;;;;;;;7.68;6.35;;;21.50;80.40;;;;;;5107798;28;20212;-71
2022/09/06 10:38:16;;;;;;;9.10;6.88;;;21.60;78.00;;;;;;5092738;28;20573;-71
2022/09/06 10:40:51;;;;;;;8.18;6.40;;;21.40;74.60;;;;;;5091863;28;20205;-71
2022/09/06 10:43:19;;;;;;;10.07;6.60;;;21.40;72.40;;;;;;5100331;28;20213;-71
2022/09/06 10:45:56;;;;;;;11.15;7.15;;;21.60;78.40;;;;;;5120134;27;20566;-71
2022/09/06 10:48:28;;;;;;;9.95;6.45;;;21.50;72.50;;;;;;5113067;28;20204;-71
2022/09/06 10:51:00;;;;;;;8.23;6.43;;;21.60;72.10;;;;;;5109334;28;20208;-71
2022/09/06 10:53:37;;;;;;;10.52;6.63;;;21.70;72.10;;;;;;5112565;28;20193;-71
2022/09/06 10:56:08;;;;;;;8.77;6.63;;;21.80;69.20;;;;;;5112987;28;20212;-71
2022/09/06 10:58:43;;;;;;;7.90;6.30;;;21.80;66.10;;;;;;5112320;28;20207;-71
2022/09/06 11:01:21;;;;;;;8.73;6.72;;;22.10;65.20;;;;;;5112056;28;20208;-71
2022/09/06 11:03:50;;;;;;;8.32;6.43;;;21.90;60.00;;;;;;5111708;28;20581;-71
2022/09/06 11:06:25;;;;;;;10.13;6.47;;;21.80;63.30;;;;;;5112227;28;20200;-71
2022/09/06 11:08:58;;;;;;;9.60;6.57;;;22.60;54.90;;;;;;5112031;28;20673;-71
2022/09/06 11:11:34;;;;;;;8.82;6.35;;;22.90;50.40;;;;;;5112047;28;20200;-71
2022/09/06 11:14:08;;;;;;;8.30;6.20;;;22.80;46.30;;;;;;5112829;28;20207;-71
2022/09/06 11:16:41;;;;;;;8.88;6.47;;;23.50;46.00;;;;;;5111815;28;20220;-71
2022/09/06 11:19:13;;;;;;;12.48;6.70;;;23.60;35.70;;;;;;5112287;28;20205;-71
2022/09/06 11:22:16;;;;;;;7.25;6.47;;;23.50;38.20;;;;;;5110821;28;20311;-71
2022/09/06 11:25:14;;;;;;;10.32;6.47;;;23.40;38.10;;;;;;5109424;28;20197;-71
2022/09/06 11:27:45;;;;;;;8.10;6.32;;;24.20;28.80;;;;;;5088403;28;20201;-71
2022/09/06 11:30:15;;;;;;;10.48;5.63;;;23.50;29.50;;;;;;5091408;28;20205;-71
2022/09/06 11:32:47;;;;;;;11.60;6.32;;;23.40;36.80;;;;;;5091877;28;20645;-71
2022/09/06 11:35:22;;;;;;;7.60;6.22;;;23.50;30.40;;;;;;5090917;28;20535;-71
2022/09/06 11:37:59;;;;;;;12.23;6.25;;;23.50;31.10;;;;;;5094322;28;20212;-71
2022/09/06 11:40:28;;;;;;;10.73;6.45;;;23.80;34.60;;;;;;5109468;28;20673;-71
2022/09/06 11:43:17;;;;;;;7.97;5.40;;;23.90;29.70;;;;;;5110169;28;20214;-71
2022/09/06 11:45:47;;;;;;;11.43;6.30;;;23.90;29.40;;;;;;5110239;28;20208;-71
2022/09/06 11:48:42;;;;;;;9.20;5.95;;;23.90;28.50;;;;;;5103665;28;20252;-71
2022/09/06 11:51:11;;;;;;;11.23;6.25;;;24.00;28.30;;;;;;5091954;28;20209;-71
2022/09/06 11:54:12;;;;;;;9.10;5.47;;;24.10;26.90;;;;;;5091210;28;20672;-70
2022/09/06 11:56:47;;;;;;;9.45;5.90;;;24.30;25.70;;;;;;5096097;28;20210;-71
2022/09/06 11:59:32;;;;;;;8.07;5.80;;;24.20;25.20;;;;;;5123141;28;20196;-71
2022/09/06 12:02:04;;;;;;;8.80;5.97;;;24.20;25.30;;;;;;5131969;28;20224;-71
2022/09/06 12:05:08;;;;;;;9.73;5.32;;;24.30;23.60;;;;;;5125643;28;20779;-71
2022/09/06 12:07:36;;;;;;;7.85;5.45;;;24.60;24.90;;;;;;5078858;28;20200;-71
2022/09/06 12:10:46;;;;;;;12.18;6.15;;;24.70;20.30;;;;;;5117036;28;20204;-71
2022/09/06 12:13:32;;;;;;;9.77;5.60;;;24.60;21.30;;;;;;5131632;28;20680;-71
2022/09/06 12:15:59;;;;;;;10.65;5.80;;;24.80;19.40;;;;;;5120841;28;20205;-71
2022/09/06 12:19:00;;;;;;;8.85;5.88;;;24.80;20.60;;;;;;5100964;28;20205;-71
2022/09/06 12:21:51;;;;;;;8.63;6.03;;;25.20;19.40;;;;;;5100687;28;20197;-73
2022/09/06 12:24:52;;;;;;;9.25;5.95;;;25.00;17.40;;;;;;5111998;28;20205;-72
2022/09/06 12:27:22;;;;;;;11.73;5.80;;;25.30;16.60;;;;;;5111348;28;20572;-71
2022/09/06 12:29:53;;;;;;;9.27;5.63;;;25.40;19.80;;;;;;5114531;28;20212;-71
2022/09/06 12:32:25;;;;;;;8.25;5.53;;;25.60;15.10;;;;;;5112694;27;20210;-71
2022/09/06 12:34:54;;;;;;;11.23;5.97;;;25.50;16.20;;;;;;5109389;27;20272;-71
2022/09/06 12:37:33;;;;;;;8.63;6.30;;;25.40;16.00;;;;;;5110208;27;20737;-71
2022/09/06 12:40:01;;;;;;;7.72;5.95;;;25.50;15.70;;;;;;5094698;28;20674;-70
2022/09/06 12:42:31;;;;;;;6.75;5.45;;;25.50;13.70;;;;;;5099659;27;20208;-70
2022/09/06 12:44:58;;;;;;;9.40;5.22;;;25.60;16.10;;;;;;5135909;27;20567;-70
2022/09/06 12:47:28;;;;;;;9.75;6.25;;;25.80;13.00;;;;;;5103268;27;20205;-70
2022/09/06 12:50:16;;;;;;;11.13;5.60;;;26.00;9.80;;;;;;5097027;27;20236;-71
2022/09/06 12:52:51;;;;;;;6.53;5.47;;;25.80;10.20;;;;;;5089281;27;20214;-71
2022/09/06 12:55:25;;;;;;;9.07;5.70;;;25.90;12.00;;;;;;5111379;28;20600;-70
2022/09/06 12:57:56;;;;;;;7.97;5.18;;;25.60;10.70;;;;;;5106293;28;20204;-70
2022/09/06 13:00:25;;;;;;;8.55;5.47;;;25.80;10.40;;;;;;5114744;28;20211;-70